sensor_id;sensor_type;location;lat;lon;timestamp;pressure;altitude;pressure_sealevel;temperature;humidity
72308;BME280;60257;42.638;23.376;2023-06-10T00:02:11;94231.75;;;16.82;84.79
72308;BME280;60257;42.638;23.376;2023-06-10T00:04:36;94232.94;;;16.88;84.53
72308;BME280;60257;42.638;23.376;2023-06-10T00:07:05;94236.09;;;16.94;84.83
72308;BME280;60257;42.638;23.376;2023-06-10T00:09:39;94237.69;;;16.95;83.97
72308;BME280;60257;42.638;23.376;2023-06-10T00:12:06;94236.50;;;16.89;82.88
72308;BME280;60257;42.638;23.376;2023-06-10T00:14:35;94237.31;;;16.86;83.02
72308;BME280;60257;42.638;23.376;2023-06-10T00:17:00;94217.16;;;16.64;83.42
72308;BME280;60257;42.638;23.376;2023-06-10T00:19:26;94238.88;;;16.76;83.24
72308;BME280;60257;42.638;23.376;2023-06-10T00:21:55;94235.72;;;16.74;83.13
72308;BME280;60257;42.638;23.376;2023-06-10T00:24:21;94235.72;;;16.67;83.09
72308;BME280;60257;42.638;23.376;2023-06-10T00:26:47;94236.13;;;16.62;83.62
72308;BME280;60257;42.638;23.376;2023-06-10T00:29:13;94234.94;;;16.67;83.71
72308;BME280;60257;42.638;23.376;2023-06-10T00:31:39;94232.53;;;16.65;83.97
72308;BME280;60257;42.638;23.376;2023-06-10T00:34:06;94247.97;;;16.73;83.31
72308;BME280;60257;42.638;23.376;2023-06-10T00:36:32;94236.50;;;16.68;83.84
72308;BME280;60257;42.638;23.376;2023-06-10T00:38:58;94248.78;;;16.63;84.40
72308;BME280;60257;42.638;23.376;2023-06-10T00:41:23;94245.59;;;16.75;84.08
72308;BME280;60257;42.638;23.376;2023-06-10T00:43:49;94252.72;;;16.83;84.29
72308;BME280;60257;42.638;23.376;2023-06-10T00:46:15;94238.88;;;16.76;84.56
72308;BME280;60257;42.638;23.376;2023-06-10T00:48:44;94242.44;;;16.80;84.70
72308;BME280;60257;42.638;23.376;2023-06-10T00:51:10;94241.25;;;16.74;85.08
72308;BME280;60257;42.638;23.376;2023-06-10T00:53:39;94244.44;;;16.80;85.04
72308;BME280;60257;42.638;23.376;2023-06-10T00:56:06;94243.63;;;16.83;84.75
72308;BME280;60257;42.638;23.376;2023-06-10T00:58:32;94244.41;;;16.98;84.11
72308;BME280;60257;42.638;23.376;2023-06-10T01:00:57;94252.69;;;16.98;83.84
72308;BME280;60257;42.638;23.376;2023-06-10T01:03:23;94240.84;;;16.83;84.50
72308;BME280;60257;42.638;23.376;2023-06-10T01:06:00;94249.53;;;16.88;84.62
72308;BME280;60257;42.638;23.376;2023-06-10T01:08:39;94251.13;;;16.89;85.45
72308;BME280;60257;42.638;23.376;2023-06-10T01:11:10;94244.00;;;16.88;85.67
72308;BME280;60257;42.638;23.376;2023-06-10T01:13:40;94244.78;;;16.89;85.92
72308;BME280;60257;42.638;23.376;2023-06-10T01:16:06;94243.63;;;16.90;85.62
72308;BME280;60257;42.638;23.376;2023-06-10T01:18:33;94247.97;;;16.95;84.89
72308;BME280;60257;42.638;23.376;2023-06-10T01:20:58;94247.97;;;16.95;84.55
72308;BME280;60257;42.638;23.376;2023-06-10T01:23:24;94242.44;;;16.80;85.37
72308;BME280;60257;42.638;23.376;2023-06-10T01:25:58;94250.38;;;16.78;85.68
72308;BME280;60257;42.638;23.376;2023-06-10T01:28:57;94249.97;;;16.87;85.75
72308;BME280;60257;42.638;23.376;2023-06-10T01:31:41;94248.75;;;16.88;85.55
72308;BME280;60257;42.638;23.376;2023-06-10T01:34:11;94253.50;;;16.91;85.10
72308;BME280;60257;42.638;23.376;2023-06-10T01:36:39;94247.56;;;16.96;84.50
72308;BME280;60257;42.638;23.376;2023-06-10T01:39:07;94247.56;;;16.96;84.79
72308;BME280;60257;42.638;23.376;2023-06-10T01:41:34;94248.38;;;16.93;85.03
72308;BME280;60257;42.638;23.376;2023-06-10T01:44:00;94246.78;;;16.92;85.08
72308;BME280;60257;42.638;23.376;2023-06-10T01:46:26;94249.97;;;16.87;85.67
72308;BME280;60257;42.638;23.376;2023-06-10T01:48:52;94245.59;;;16.89;85.75
72308;BME280;60257;42.638;23.376;2023-06-10T01:51:17;94254.69;;;16.93;85.57
72308;BME280;60257;42.638;23.376;2023-06-10T01:53:43;94241.66;;;16.94;85.37
72308;BME280;60257;42.638;23.376;2023-06-10T01:56:08;94242.41;;;16.98;85.21
72308;BME280;60257;42.638;23.376;2023-06-10T01:58:34;94239.66;;;17.02;85.06
72308;BME280;60257;42.638;23.376;2023-06-10T02:00:59;94238.47;;;16.99;84.83
72308;BME280;60257;42.638;23.376;2023-06-10T02:03:25;94234.88;;;17.06;85.00
72308;BME280;60257;42.638;23.376;2023-06-10T02:05:50;94226.97;;;17.04;85.49
72308;BME280;60257;42.638;23.376;2023-06-10T02:08:16;94237.25;;;17.04;85.25
72308;BME280;60257;42.638;23.376;2023-06-10T02:10:41;94231.72;;;17.04;85.50
72308;BME280;60257;42.638;23.376;2023-06-10T02:13:07;94228.56;;;17.02;85.58
72308;BME280;60257;42.638;23.376;2023-06-10T02:15:32;94230.94;;;17.00;85.85
72308;BME280;60257;42.638;23.376;2023-06-10T02:17:59;94222.66;;;16.92;86.16
72308;BME280;60257;42.638;23.376;2023-06-10T02:20:25;94211.16;;;16.90;85.79
72308;BME280;60257;42.638;23.376;2023-06-10T02:22:51;94224.22;;;17.01;86.15
72308;BME280;60257;42.638;23.376;2023-06-10T02:25:17;94212.34;;;16.97;86.19
72308;BME280;60257;42.638;23.376;2023-06-10T02:27:42;94213.13;;;16.97;86.06
72308;BME280;60257;42.638;23.376;2023-06-10T02:30:08;94207.22;;;16.95;85.68
72308;BME280;60257;42.638;23.376;2023-06-10T02:32:36;94212.75;;;16.99;85.68
72308;BME280;60257;42.638;23.376;2023-06-10T02:35:01;94208.00;;;16.99;85.57
72308;BME280;60257;42.638;23.376;2023-06-10T02:37:27;94202.84;;;17.01;85.19
72308;BME280;60257;42.638;23.376;2023-06-10T02:39:52;94199.28;;;17.01;85.24
72308;BME280;60257;42.638;23.376;2023-06-10T02:42:17;94195.69;;;17.04;85.19
72308;BME280;60257;42.638;23.376;2023-06-10T02:44:43;94198.91;;;17.02;85.32
72308;BME280;60257;42.638;23.376;2023-06-10T02:47:08;94204.41;;;17.06;85.30
72308;BME280;60257;42.638;23.376;2023-06-10T02:49:34;94193.72;;;17.08;85.04
72308;BME280;60257;42.638;23.376;2023-06-10T02:51:59;94194.09;;;17.13;84.71
72308;BME280;60257;42.638;23.376;2023-06-10T02:54:25;94197.28;;;17.12;84.68
72308;BME280;60257;42.638;23.376;2023-06-10T02:56:52;94192.56;;;17.02;84.92
72308;BME280;60257;42.638;23.376;2023-06-10T02:59:18;94192.56;;;17.02;84.82
72308;BME280;60257;42.638;23.376;2023-06-10T03:01:43;94192.94;;;17.04;85.06
72308;BME280;60257;42.638;23.376;2023-06-10T03:04:09;94196.50;;;17.08;84.86
72308;BME280;60257;42.638;23.376;2023-06-10T03:06:35;94192.16;;;17.07;84.81
72308;BME280;60257;42.638;23.376;2023-06-10T03:09:02;94200.47;;;17.10;84.50
72308;BME280;60257;42.638;23.376;2023-06-10T03:11:30;94200.84;;;17.05;84.44
72308;BME280;60257;42.638;23.376;2023-06-10T03:13:57;94203.63;;;16.98;84.06
72308;BME280;60257;42.638;23.376;2023-06-10T03:16:22;94201.69;;;16.95;83.88
72308;BME280;60257;42.638;23.376;2023-06-10T03:18:50;94203.66;;;17.02;83.55
72308;BME280;60257;42.638;23.376;2023-06-10T03:21:16;94200.47;;;17.03;83.47
72308;BME280;60257;42.638;23.376;2023-06-10T03:23:41;94204.41;;;17.06;83.39
72308;BME280;60257;42.638;23.376;2023-06-10T03:26:07;94205.59;;;17.08;83.49
72308;BME280;60257;42.638;23.376;2023-06-10T03:28:32;94211.94;;;17.05;83.69
72308;BME280;60257;42.638;23.376;2023-06-10T03:30:58;94213.53;;;17.03;84.21
72308;BME280;60257;42.638;23.376;2023-06-10T03:33:23;94212.31;;;17.04;84.44
72308;BME280;60257;42.638;23.376;2023-06-10T03:35:50;94222.63;;;17.00;84.44
72308;BME280;60257;42.638;23.376;2023-06-10T03:38:15;94221.06;;;17.02;84.74
72308;BME280;60257;42.638;23.376;2023-06-10T03:40:41;94222.63;;;17.00;85.13
72308;BME280;60257;42.638;23.376;2023-06-10T03:43:07;94221.84;;;16.92;85.84
72308;BME280;60257;42.638;23.376;2023-06-10T03:45:32;94216.72;;;16.94;85.87
72308;BME280;60257;42.638;23.376;2023-06-10T03:47:58;94223.41;;;17.11;85.67
72308;BME280;60257;42.638;23.376;2023-06-10T03:50:23;94234.50;;;17.11;85.71
72308;BME280;60257;42.638;23.376;2023-06-10T03:52:50;94233.28;;;17.15;85.86
72308;BME280;60257;42.638;23.376;2023-06-10T03:55:16;94223.41;;;17.14;85.79
72308;BME280;60257;42.638;23.376;2023-06-10T03:57:42;94228.91;;;17.21;85.46
72308;BME280;60257;42.638;23.376;2023-06-10T04:00:07;94232.47;;;17.22;85.65
72308;BME280;60257;42.638;23.376;2023-06-10T04:02:38;94230.91;;;17.21;86.09
72308;BME280;60257;42.638;23.376;2023-06-10T04:05:15;94228.53;;;17.19;86.25
72308;BME280;60257;42.638;23.376;2023-06-10T04:07:41;94236.50;;;17.03;85.93
72308;BME280;60257;42.638;23.376;2023-06-10T04:10:08;94233.34;;;16.94;86.15
72308;BME280;60257;42.638;23.376;2023-06-10T04:12:34;94234.53;;;16.93;86.48
72308;BME280;60257;42.638;23.376;2023-06-10T04:15:00;94241.63;;;16.90;86.47
72308;BME280;60257;42.638;23.376;2023-06-10T04:17:25;94242.84;;;16.79;86.83
72308;BME280;60257;42.638;23.376;2023-06-10T04:19:51;94235.72;;;16.74;87.31
72308;BME280;60257;42.638;23.376;2023-06-10T04:22:17;94237.28;;;16.75;87.19
72308;BME280;60257;42.638;23.376;2023-06-10T04:24:43;94238.91;;;16.80;87.17
72308;BME280;60257;42.638;23.376;2023-06-10T04:27:08;94239.25;;;16.92;87.00
72308;BME280;60257;42.638;23.376;2023-06-10T04:29:34;94241.63;;;16.98;86.42
72308;BME280;60257;42.638;23.376;2023-06-10T04:32:00;94240.06;;;16.93;85.69
72308;BME280;60257;42.638;23.376;2023-06-10T04:34:27;94233.72;;;16.89;85.65
72308;BME280;60257;42.638;23.376;2023-06-10T04:36:52;94245.97;;;16.88;85.81
72308;BME280;60257;42.638;23.376;2023-06-10T04:39:18;94240.47;;;16.70;85.95
72308;BME280;60257;42.638;23.376;2023-06-10T04:41:43;94247.56;;;16.75;86.09
72308;BME280;60257;42.638;23.376;2023-06-10T04:44:09;94242.81;;;16.89;85.20
72308;BME280;60257;42.638;23.376;2023-06-10T04:46:36;94245.22;;;16.95;84.87
72308;BME280;60257;42.638;23.376;2023-06-10T04:49:02;94236.47;;;16.96;85.19
72308;BME280;60257;42.638;23.376;2023-06-10T04:51:28;94236.06;;;17.08;84.57
72308;BME280;60257;42.638;23.376;2023-06-10T04:53:53;94244.38;;;17.12;83.84
72308;BME280;60257;42.638;23.376;2023-06-10T04:56:19;94242.03;;;17.10;84.16
72308;BME280;60257;42.638;23.376;2023-06-10T04:58:45;94225.00;;;17.01;83.78
72308;BME280;60257;42.638;23.376;2023-06-10T05:01:11;94238.06;;;17.08;83.90
72308;BME280;60257;42.638;23.376;2023-06-10T05:03:36;94237.28;;;17.11;84.46
72308;BME280;60257;42.638;23.376;2023-06-10T05:06:02;94237.28;;;17.11;84.18
72308;BME280;60257;42.638;23.376;2023-06-10T05:08:27;94230.53;;;17.15;84.30
72308;BME280;60257;42.638;23.376;2023-06-10T05:10:52;94230.09;;;17.27;84.00
72308;BME280;60257;42.638;23.376;2023-06-10T05:13:18;94231.28;;;17.34;83.83
72308;BME280;60257;42.638;23.376;2023-06-10T05:15:43;94229.28;;;17.41;83.52
72308;BME280;60257;42.638;23.376;2023-06-10T05:18:10;94234.00;;;17.48;83.00
72308;BME280;60257;42.638;23.376;2023-06-10T05:20:38;94230.78;;;17.60;82.89
72308;BME280;60257;42.638;23.376;2023-06-10T05:23:03;94232.75;;;17.59;82.32
72308;BME280;60257;42.638;23.376;2023-06-10T05:25:32;94228.41;;;17.65;81.65
72308;BME280;60257;42.638;23.376;2023-06-10T05:27:58;94221.66;;;17.70;82.19
72308;BME280;60257;42.638;23.376;2023-06-10T05:30:23;94228.34;;;17.80;82.03
72308;BME280;60257;42.638;23.376;2023-06-10T05:32:50;94223.19;;;17.85;80.99
72308;BME280;60257;42.638;23.376;2023-06-10T05:35:16;94231.06;;;17.90;81.26
72308;BME280;60257;42.638;23.376;2023-06-10T05:37:42;94230.66;;;17.92;81.36
72308;BME280;60257;42.638;23.376;2023-06-10T05:40:09;94223.91;;;17.96;81.08
72308;BME280;60257;42.638;23.376;2023-06-10T05:42:34;94233.03;;;17.90;81.08
72308;BME280;60257;42.638;23.376;2023-06-10T05:45:00;94235.34;;;18.05;80.96
72308;BME280;60257;42.638;23.376;2023-06-10T05:47:25;94233.28;;;18.20;80.53
72308;BME280;60257;42.638;23.376;2023-06-10T05:49:51;94238.25;;;18.46;80.09
72308;BME280;60257;42.638;23.376;2023-06-10T05:52:17;94238.97;;;18.65;79.66
72308;BME280;60257;42.638;23.376;2023-06-10T05:54:43;94238.47;;;18.77;78.74
72308;BME280;60257;42.638;23.376;2023-06-10T05:57:09;94243.88;;;18.91;78.00
72308;BME280;60257;42.638;23.376;2023-06-10T05:59:35;94245.06;;;18.94;77.89
72308;BME280;60257;42.638;23.376;2023-06-10T06:02:01;94248.91;;;19.07;78.08
72308;BME280;60257;42.638;23.376;2023-06-10T06:04:26;94238.91;;;19.16;77.81
72308;BME280;60257;42.638;23.376;2023-06-10T06:06:52;94244.53;;;19.06;77.70
72308;BME280;60257;42.638;23.376;2023-06-10T06:09:17;94252.00;;;19.19;77.49
72308;BME280;60257;42.638;23.376;2023-06-10T06:11:43;94247.31;;;19.06;78.01
72308;BME280;60257;42.638;23.376;2023-06-10T06:14:08;94243.81;;;18.98;78.14
72308;BME280;60257;42.638;23.376;2023-06-10T06:16:34;94238.56;;;19.11;78.05
72308;BME280;60257;42.638;23.376;2023-06-10T06:18:59;94254.09;;;19.05;78.38
72308;BME280;60257;42.638;23.376;2023-06-10T06:21:25;94240.94;;;19.12;78.31
72308;BME280;60257;42.638;23.376;2023-06-10T06:23:50;94249.09;;;19.30;77.72
72308;BME280;60257;42.638;23.376;2023-06-10T06:26:16;94237.00;;;19.44;77.07
72308;BME280;60257;42.638;23.376;2023-06-10T06:28:41;94242.63;;;19.40;76.11
72308;BME280;60257;42.638;23.376;2023-06-10T06:31:07;94245.03;;;19.38;76.28
72308;BME280;60257;42.638;23.376;2023-06-10T06:33:32;94238.59;;;19.45;76.05
72308;BME280;60257;42.638;23.376;2023-06-10T06:35:58;94247.66;;;19.56;75.62
72308;BME280;60257;42.638;23.376;2023-06-10T06:38:25;94252.84;;;19.54;76.00
72308;BME280;60257;42.638;23.376;2023-06-10T06:40:51;94249.16;;;19.64;75.61
72308;BME280;60257;42.638;23.376;2023-06-10T06:43:16;94249.78;;;19.79;74.72
72308;BME280;60257;42.638;23.376;2023-06-10T06:45:44;94242.13;;;19.52;76.25
72308;BME280;60257;42.638;23.376;2023-06-10T06:48:11;94238.69;;;19.75;75.47
72308;BME280;60257;42.638;23.376;2023-06-10T06:50:36;94239.81;;;19.81;75.70
72308;BME280;60257;42.638;23.376;2023-06-10T06:53:03;94227.94;;;19.77;75.68
72308;BME280;60257;42.638;23.376;2023-06-10T06:55:28;94241.03;;;19.80;75.82
72308;BME280;60257;42.638;23.376;2023-06-10T06:57:54;94234.28;;;19.78;75.51
72308;BME280;60257;42.638;23.376;2023-06-10T07:00:19;94231.38;;;19.88;74.73
72308;BME280;60257;42.638;23.376;2023-06-10T07:02:48;94233.72;;;19.90;74.70
72308;BME280;60257;42.638;23.376;2023-06-10T07:05:14;94237.94;;;20.05;74.24
72308;BME280;60257;42.638;23.376;2023-06-10T07:07:39;94237.22;;;20.28;72.90
72308;BME280;60257;42.638;23.376;2023-06-10T07:10:05;94232.31;;;20.39;71.63
72308;BME280;60257;42.638;23.376;2023-06-10T07:12:31;94224.16;;;20.52;71.31
72308;BME280;60257;42.638;23.376;2023-06-10T07:14:56;94235.03;;;20.69;71.00
72308;BME280;60257;42.638;23.376;2023-06-10T07:17:21;94227.09;;;20.91;70.36
72308;BME280;60257;42.638;23.376;2023-06-10T07:19:47;94227.09;;;20.91;69.47
72308;BME280;60257;42.638;23.376;2023-06-10T07:22:13;94219.72;;;21.04;69.21
72308;BME280;60257;42.638;23.376;2023-06-10T07:24:39;94217.09;;;21.21;68.30
72308;BME280;60257;42.638;23.376;2023-06-10T07:27:05;94215.81;;;21.45;67.54
72308;BME280;60257;42.638;23.376;2023-06-10T07:29:31;94210.78;;;21.60;65.11
72308;BME280;60257;42.638;23.376;2023-06-10T07:31:56;94218.88;;;21.31;65.89
72308;BME280;60257;42.638;23.376;2023-06-10T07:34:22;94198.88;;;21.36;66.32
72308;BME280;60257;42.638;23.376;2023-06-10T07:36:47;94207.53;;;21.61;65.27
72308;BME280;60257;42.638;23.376;2023-06-10T07:39:12;94204.59;;;21.88;65.27
72308;BME280;60257;42.638;23.376;2023-06-10T07:41:38;94207.66;;;21.97;62.55
72308;BME280;60257;42.638;23.376;2023-06-10T07:44:03;94206.25;;;21.66;63.53
72308;BME280;60257;42.638;23.376;2023-06-10T07:46:29;94217.28;;;21.73;63.57
72308;BME280;60257;42.638;23.376;2023-06-10T07:48:54;94215.81;;;21.45;62.28
72308;BME280;60257;42.638;23.376;2023-06-10T07:51:21;94214.59;;;21.46;62.97
72308;BME280;60257;42.638;23.376;2023-06-10T07:53:46;94210.63;;;21.67;63.82
72308;BME280;60257;42.638;23.376;2023-06-10T07:56:12;94208.19;;;21.69;62.07
72308;BME280;60257;42.638;23.376;2023-06-10T07:58:37;94208.88;;;21.53;62.27
72308;BME280;60257;42.638;23.376;2023-06-10T08:01:03;94208.50;;;21.31;62.13
72308;BME280;60257;42.638;23.376;2023-06-10T08:03:29;94213.28;;;21.31;62.42
72308;BME280;60257;42.638;23.376;2023-06-10T08:05:54;94221.25;;;21.32;62.32
72308;BME280;60257;42.638;23.376;2023-06-10T08:08:20;94199.28;;;21.34;61.18
72308;BME280;60257;42.638;23.376;2023-06-10T08:10:45;94212.88;;;21.32;61.15
72308;BME280;60257;42.638;23.376;2023-06-10T08:13:11;94204.34;;;21.20;60.93
72308;BME280;60257;42.638;23.376;2023-06-10T08:15:36;94207.38;;;21.05;61.32
72308;BME280;60257;42.638;23.376;2023-06-10T08:18:02;94206.13;;;21.06;62.67
72308;BME280;60257;42.638;23.376;2023-06-10T08:20:27;94203.28;;;21.10;62.48
72308;BME280;60257;42.638;23.376;2023-06-10T08:22:52;94205.72;;;21.08;63.73
72308;BME280;60257;42.638;23.376;2023-06-10T08:25:18;94200.44;;;21.13;61.02
72308;BME280;60257;42.638;23.376;2023-06-10T08:27:44;94194.56;;;21.08;61.81
72308;BME280;60257;42.638;23.376;2023-06-10T08:30:09;94194.41;;;20.95;61.46
72308;BME280;60257;42.638;23.376;2023-06-10T08:32:36;94188.69;;;21.02;62.55
72308;BME280;60257;42.638;23.376;2023-06-10T08:35:02;94187.13;;;21.01;60.96
72308;BME280;60257;42.638;23.376;2023-06-10T08:37:29;94188.19;;;21.07;59.54
72308;BME280;60257;42.638;23.376;2023-06-10T08:39:55;94188.81;;;21.19;56.83
72308;BME280;60257;42.638;23.376;2023-06-10T08:42:53;94190.56;;;21.09;55.20
72308;BME280;60257;42.638;23.376;2023-06-10T08:45:23;94187.53;;;21.00;53.59
72308;BME280;60257;42.638;23.376;2023-06-10T08:47:50;94185.25;;;21.18;55.09
72308;BME280;60257;42.638;23.376;2023-06-10T08:50:18;94188.94;;;21.35;53.62
72308;BME280;60257;42.638;23.376;2023-06-10T08:52:47;94193.22;;;21.16;52.92
72308;BME280;60257;42.638;23.376;2023-06-10T08:55:30;94187.13;;;21.25;52.59
72308;BME280;60257;42.638;23.376;2023-06-10T08:58:00;94174.97;;;21.35;54.53
72308;BME280;60257;42.638;23.376;2023-06-10T09:00:27;94171.19;;;21.45;55.63
72308;BME280;60257;42.638;23.376;2023-06-10T09:02:52;94169.19;;;21.45;52.71
72308;BME280;60257;42.638;23.376;2023-06-10T09:05:18;94156.31;;;21.52;53.61
72308;BME280;60257;42.638;23.376;2023-06-10T09:07:45;94159.25;;;21.64;53.47
72308;BME280;60257;42.638;23.376;2023-06-10T09:10:11;94163.25;;;21.63;54.74
72308;BME280;60257;42.638;23.376;2023-06-10T09:12:37;94164.63;;;21.75;54.25
72308;BME280;60257;42.638;23.376;2023-06-10T09:15:06;94161.91;;;21.52;51.22
72308;BME280;60257;42.638;23.376;2023-06-10T09:17:32;94158.81;;;21.66;51.93
72308;BME280;60257;42.638;23.376;2023-06-10T09:19:59;94157.22;;;21.84;53.48
72308;BME280;60257;42.638;23.376;2023-06-10T09:22:25;94158.78;;;21.85;50.99
72308;BME280;60257;42.638;23.376;2023-06-10T09:25:01;94155.53;;;21.71;51.73
72308;BME280;60257;42.638;23.376;2023-06-10T09:27:30;94155.47;;;21.74;50.32
72308;BME280;60257;42.638;23.376;2023-06-10T09:29:56;94152.50;;;21.81;50.51
72308;BME280;60257;42.638;23.376;2023-06-10T09:32:23;94150.41;;;21.85;50.54
72308;BME280;60257;42.638;23.376;2023-06-10T09:34:49;94144.06;;;22.05;50.75
72308;BME280;60257;42.638;23.376;2023-06-10T09:37:23;94145.91;;;22.11;50.26
72308;BME280;60257;42.638;23.376;2023-06-10T09:40:06;94149.50;;;22.28;50.39
72308;BME280;60257;42.638;23.376;2023-06-10T09:42:33;94141.84;;;22.48;48.71
72308;BME280;60257;42.638;23.376;2023-06-10T09:44:59;94140.97;;;22.51;47.44
72308;BME280;60257;42.638;23.376;2023-06-10T09:47:25;94143.47;;;22.46;47.36
72308;BME280;60257;42.638;23.376;2023-06-10T09:49:51;94133.72;;;22.54;49.38
72308;BME280;60257;42.638;23.376;2023-06-10T09:52:22;94147.25;;;22.55;47.10
72308;BME280;60257;42.638;23.376;2023-06-10T09:54:49;94140.00;;;22.58;47.63
72308;BME280;60257;42.638;23.376;2023-06-10T09:57:16;94130.91;;;22.70;47.60
72308;BME280;60257;42.638;23.376;2023-06-10T09:59:42;94133.81;;;22.99;47.16
72308;BME280;60257;42.638;23.376;2023-06-10T10:02:16;94127.31;;;23.18;46.69
72308;BME280;60257;42.638;23.376;2023-06-10T10:04:43;94127.50;;;23.40;48.21
72308;BME280;60257;42.638;23.376;2023-06-10T10:07:09;94129.84;;;23.41;47.04
72308;BME280;60257;42.638;23.376;2023-06-10T10:09:36;94123.72;;;23.47;46.96
72308;BME280;60257;42.638;23.376;2023-06-10T10:12:15;94122.44;;;23.51;46.38
72308;BME280;60257;42.638;23.376;2023-06-10T10:14:46;94123.69;;;23.63;46.29
72308;BME280;60257;42.638;23.376;2023-06-10T10:17:14;94115.41;;;23.59;45.53
72308;BME280;60257;42.638;23.376;2023-06-10T10:19:53;94111.22;;;23.51;45.38
72308;BME280;60257;42.638;23.376;2023-06-10T10:22:26;94107.47;;;23.70;45.71
72308;BME280;60257;42.638;23.376;2023-06-10T10:25:00;94106.72;;;23.95;45.33
72308;BME280;60257;42.638;23.376;2023-06-10T10:27:33;94109.66;;;23.92;45.01
72308;BME280;60257;42.638;23.376;2023-06-10T10:30:01;94111.75;;;24.00;44.44
72308;BME280;60257;42.638;23.376;2023-06-10T10:32:45;94096.56;;;24.14;44.44
72308;BME280;60257;42.638;23.376;2023-06-10T10:35:20;94104.53;;;24.28;46.12
72308;BME280;60257;42.638;23.376;2023-06-10T10:37:53;94104.84;;;24.55;46.90
72308;BME280;60257;42.638;23.376;2023-06-10T10:40:20;94099.09;;;24.72;43.78
72308;BME280;60257;42.638;23.376;2023-06-10T10:42:48;94086.91;;;24.66;43.69
72308;BME280;60257;42.638;23.376;2023-06-10T10:45:14;94081.19;;;24.69;43.46
72308;BME280;60257;42.638;23.376;2023-06-10T10:47:41;94092.69;;;24.97;43.05
72308;BME280;60257;42.638;23.376;2023-06-10T10:50:17;94087.50;;;25.08;41.98
72308;BME280;60257;42.638;23.376;2023-06-10T10:53:00;94084.53;;;24.77;40.63
72308;BME280;60257;42.638;23.376;2023-06-10T10:55:27;94085.31;;;24.65;40.63
72308;BME280;60257;42.638;23.376;2023-06-10T10:58:08;94086.34;;;24.58;41.47
72308;BME280;60257;42.638;23.376;2023-06-10T11:00:43;94075.03;;;24.62;42.15
72308;BME280;60257;42.638;23.376;2023-06-10T11:03:14;94068.59;;;24.74;41.54
72308;BME280;60257;42.638;23.376;2023-06-10T11:05:44;94073.72;;;24.88;41.08
72308;BME280;60257;42.638;23.376;2023-06-10T11:08:14;94070.28;;;25.18;40.94
72308;BME280;60257;42.638;23.376;2023-06-10T11:10:41;94069.47;;;25.18;41.62
72308;BME280;60257;42.638;23.376;2023-06-10T11:13:19;94065.69;;;24.77;42.05
72308;BME280;60257;42.638;23.376;2023-06-10T11:15:46;94057.22;;;24.90;42.11
72308;BME280;60257;42.638;23.376;2023-06-10T11:18:13;94057.34;;;24.99;42.66
72308;BME280;60257;42.638;23.376;2023-06-10T11:20:59;94046.72;;;25.16;42.37
72308;BME280;60257;42.638;23.376;2023-06-10T11:26:16;94052.19;;;25.41;41.99
72308;BME280;60257;42.638;23.376;2023-06-10T11:29:03;94047.88;;;25.06;41.88
72308;BME280;60257;42.638;23.376;2023-06-10T11:34:03;94042.81;;;25.13;41.47
72308;BME280;60257;42.638;23.376;2023-06-10T11:36:31;94040.53;;;25.43;40.50
72308;BME280;60257;42.638;23.376;2023-06-10T11:38:58;94039.00;;;25.51;40.03
72308;BME280;60257;42.638;23.376;2023-06-10T11:41:25;94038.34;;;25.90;41.93
72308;BME280;60257;42.638;23.376;2023-06-10T11:43:52;94038.78;;;26.20;39.33
72308;BME280;60257;42.638;23.376;2023-06-10T11:46:17;94032.81;;;26.58;38.14
72308;BME280;60257;42.638;23.376;2023-06-10T11:48:51;94027.72;;;26.83;38.47
72308;BME280;60257;42.638;23.376;2023-06-10T11:51:16;94016.28;;;26.87;37.88
72308;BME280;60257;42.638;23.376;2023-06-10T11:53:47;94022.28;;;27.26;38.88
72308;BME280;60257;42.638;23.376;2023-06-10T11:56:12;94011.97;;;27.41;38.76
72308;BME280;60257;42.638;23.376;2023-06-10T11:58:43;94019.91;;;27.42;35.97
72308;BME280;60257;42.638;23.376;2023-06-10T12:01:10;94021.50;;;27.07;36.01
72308;BME280;60257;42.638;23.376;2023-06-10T12:03:37;94021.03;;;26.90;35.95
72308;BME280;60257;42.638;23.376;2023-06-10T12:06:05;94016.66;;;26.98;36.20
72308;BME280;60257;42.638;23.376;2023-06-10T12:08:31;94019.31;;;26.93;36.49
72308;BME280;60257;42.638;23.376;2023-06-10T12:10:57;94006.75;;;26.75;36.54
72308;BME280;60257;42.638;23.376;2023-06-10T12:13:26;94004.88;;;26.63;37.25
72308;BME280;60257;42.638;23.376;2023-06-10T12:15:51;94011.94;;;26.86;37.64
72308;BME280;60257;42.638;23.376;2023-06-10T12:18:23;94018.22;;;26.99;36.39
72308;BME280;60257;42.638;23.376;2023-06-10T12:20:50;94014.59;;;26.90;36.05
72308;BME280;60257;42.638;23.376;2023-06-10T12:23:17;94007.09;;;26.87;35.26
72308;BME280;60257;42.638;23.376;2023-06-10T12:25:50;94005.81;;;26.88;35.74
72308;BME280;60257;42.638;23.376;2023-06-10T12:28:17;94012.28;;;26.97;35.51
72308;BME280;60257;42.638;23.376;2023-06-10T12:30:45;94014.75;;;26.86;35.46
72308;BME280;60257;42.638;23.376;2023-06-10T12:33:21;94012.41;;;26.85;35.44
72308;BME280;60257;42.638;23.376;2023-06-10T12:35:50;94003.84;;;26.97;35.02
72308;BME280;60257;42.638;23.376;2023-06-10T12:38:23;94007.06;;;26.68;34.83
72308;BME280;60257;42.638;23.376;2023-06-10T12:40:50;94000.34;;;26.75;34.79
72308;BME280;60257;42.638;23.376;2023-06-10T12:43:25;93996.94;;;26.71;34.56
72308;BME280;60257;42.638;23.376;2023-06-10T12:45:51;93991.16;;;27.11;35.12
72308;BME280;60257;42.638;23.376;2023-06-10T12:48:19;93991.31;;;27.26;33.00
72308;BME280;60257;42.638;23.376;2023-06-10T12:50:52;93982.09;;;26.70;34.36
72308;BME280;60257;42.638;23.376;2023-06-10T12:53:19;93984.00;;;27.01;34.46
72308;BME280;60257;42.638;23.376;2023-06-10T12:55:45;93992.25;;;27.32;34.66
72308;BME280;60257;42.638;23.376;2023-06-10T12:58:14;93990.97;;;27.42;34.61